INFORMACIÓN METAR y TAF
METAR FOR LFBO
ADDS - METARS form results

(2317 UTC 13 June 2021)
Data provider http://aviationweather.gov/metar/data/
 
METAR text: LFBO 132300Z AUTO 33004KT CAVOK 24/15 Q1018 NOSIG
Conditions at: LFBO (TOULOUSE/BLAGNAC, FR) observed 2300 UTC 13 June 2021
Temperature: 24.0°C (75°F)
Dewpoint: 15.0°C (59°F) [RH = 57%]
Pressure (altimeter): 30.06 inches Hg (1018.0 mb)
Winds: from the NNW (330 degrees) at 5 MPH (4 knots; 2.1 m/s)
Visibility: 6 or more miles (10+ km)
Ceiling: ceiling and visibility are OK
Clouds: unknown
Weather: no significant weather observed at this time

METAR text: LFBO 132230Z AUTO 35005KT CAVOK 26/14 Q1018 NOSIG
Conditions at: LFBO (TOULOUSE/BLAGNAC, FR) observed 2230 UTC 13 June 2021
Temperature: 26.0°C (79°F)
Dewpoint: 14.0°C (57°F) [RH = 48%]
Pressure (altimeter): 30.06 inches Hg (1018.0 mb)
Winds: from the N (350 degrees) at 6 MPH (5 knots; 2.6 m/s)
Visibility: 6 or more miles (10+ km)
Ceiling: ceiling and visibility are OK
Clouds: unknown
Weather: no significant weather observed at this time

Forecast for: LFBO (TOULOUSE/BLAGNAC, FR)
Text: TAF LFBO 131700Z 1318/1424 30010KT CAVOK
Forecast period: 1800 UTC 13 June 2021 to 0000 UTC 15 June 2021
Forecast type: FROM: standard forecast or significant change
Winds: from the WNW (300 degrees) at 12 MPH (10 knots; 5.1 m/s)
Visibility: 6 or more miles (10+ km)
Ceiling: unknown
Clouds: missing
Weather: NSW  (no significant weather)
Text: TEMPO 1400/1406 VRB02KT
Forecast period: 0000 to 0600 UTC 14 June 2021
Forecast type: TEMPORARY: The following changes expected for less than half the time period
Winds: variable direction winds at 2 MPH (2 knots; 1.0 m/s)
Visibility: missing
Ceiling: unknown
Clouds: missing
Weather: no significant weather forecast for this period

 MAPA DE AEROPUERTO

 INFORMACIÓN DE PISTA
Pista 14L Longitud 9843 ft Ancho 148 ft
Elevación 490 ft Umbral desplazado 0 ft Rumbo de pista 143
Pista 32R Longitud 9843 ft Ancho 148 ft
Elevación 497 ft Umbral desplazado 0 ft Rumbo de pista 323
Pista 14R Longitud 11483 ft Ancho 148 ft
Elevación 488 ft Umbral desplazado 0 ft Rumbo de pista 143
Pista 32L Longitud 11483 ft Ancho 148 ft
Elevación 497 ft Umbral desplazado 0 ft Rumbo de pista 323

 FRECUANCIAS DEL AEROPUERTO
Tipo AFIS Nombre TOULOUSE I Frecuencia 121.25 MHZ
Tipo APP Nombre APP Frecuencia 121.1 MHZ
Tipo APP Nombre TOULOUSE A Frecuencia 125.175 MHZ
Tipo ATIS Nombre ATIS Frecuencia 123.125 MHZ
Tipo CLD Nombre CLNC DEL Frecuencia 121.7 MHZ
Tipo GND Nombre GND Frecuencia 121.9 MHZ
Tipo TWR Nombre TWR Frecuencia 118.1 MHZ

 RADIO AYUDAS DEL AEROPUERTO
Tipo NDB Nombre Toulouse Frecuencia 415 KHZ
Tipo VOR-DME Nombre Toulouse Frecuencia 117700 KHZ
Tipo NDB Nombre Toulouse Frecuencia 423 KHZ
Tipo NDB Nombre Toulouse Frecuencia 406 KHZ




Normativa | Spanair Virtual © 2021 |